sensor_id;sensor_type;location;lat;lon;timestamp;P1;durP1;ratioP1;P2;durP2;ratioP2
19257;SDS011;9763;48.780;9.212;2022-12-07T00:00:01;3.60;;;3.30;;
19257;SDS011;9763;48.780;9.212;2022-12-07T00:03:26;4.03;;;3.63;;
19257;SDS011;9763;48.780;9.212;2022-12-07T00:06:51;4.37;;;3.67;;
19257;SDS011;9763;48.780;9.212;2022-12-07T00:10:15;3.40;;;3.10;;
19257;SDS011;9763;48.780;9.212;2022-12-07T00:13:39;4.20;;;3.80;;
19257;SDS011;9763;48.780;9.212;2022-12-07T00:17:03;3.63;;;3.33;;
19257;SDS011;9763;48.780;9.212;2022-12-07T00:20:27;3.60;;;3.30;;
19257;SDS011;9763;48.780;9.212;2022-12-07T00:23:52;3.97;;;3.23;;
19257;SDS011;9763;48.780;9.212;2022-12-07T00:27:17;4.17;;;3.77;;
19257;SDS011;9763;48.780;9.212;2022-12-07T00:30:41;3.80;;;3.50;;
19257;SDS011;9763;48.780;9.212;2022-12-07T00:34:05;4.30;;;4.00;;
19257;SDS011;9763;48.780;9.212;2022-12-07T00:37:29;4.50;;;4.10;;
19257;SDS011;9763;48.780;9.212;2022-12-07T00:40:55;3.47;;;3.17;;
19257;SDS011;9763;48.780;9.212;2022-12-07T00:44:19;3.57;;;3.27;;
19257;SDS011;9763;48.780;9.212;2022-12-07T00:47:43;4.13;;;3.67;;
19257;SDS011;9763;48.780;9.212;2022-12-07T00:51:06;5.10;;;4.60;;
19257;SDS011;9763;48.780;9.212;2022-12-07T00:54:32;4.90;;;4.33;;
19257;SDS011;9763;48.780;9.212;2022-12-07T00:57:56;5.30;;;4.80;;
19257;SDS011;9763;48.780;9.212;2022-12-07T01:01:20;4.73;;;4.33;;
19257;SDS011;9763;48.780;9.212;2022-12-07T01:04:46;4.80;;;4.40;;
19257;SDS011;9763;48.780;9.212;2022-12-07T01:08:11;4.03;;;3.73;;
19257;SDS011;9763;48.780;9.212;2022-12-07T01:11:35;3.60;;;3.30;;
19257;SDS011;9763;48.780;9.212;2022-12-07T01:15:01;4.37;;;3.80;;
19257;SDS011;9763;48.780;9.212;2022-12-07T01:18:24;4.77;;;4.33;;
19257;SDS011;9763;48.780;9.212;2022-12-07T01:21:49;5.67;;;5.07;;
19257;SDS011;9763;48.780;9.212;2022-12-07T01:25:12;4.43;;;4.03;;
19257;SDS011;9763;48.780;9.212;2022-12-07T01:28:36;4.57;;;3.77;;
19257;SDS011;9763;48.780;9.212;2022-12-07T01:32:01;4.23;;;3.83;;
19257;SDS011;9763;48.780;9.212;2022-12-07T01:35:25;3.80;;;3.50;;
19257;SDS011;9763;48.780;9.212;2022-12-07T01:38:49;3.47;;;3.17;;
19257;SDS011;9763;48.780;9.212;2022-12-07T01:42:19;4.73;;;3.60;;
19257;SDS011;9763;48.780;9.212;2022-12-07T01:45:42;4.43;;;4.03;;
19257;SDS011;9763;48.780;9.212;2022-12-07T01:49:09;5.07;;;4.53;;
19257;SDS011;9763;48.780;9.212;2022-12-07T01:52:40;3.93;;;3.63;;
19257;SDS011;9763;48.780;9.212;2022-12-07T01:56:07;4.40;;;4.00;;
19257;SDS011;9763;48.780;9.212;2022-12-07T01:59:36;5.07;;;4.57;;
19257;SDS011;9763;48.780;9.212;2022-12-07T02:03:02;3.50;;;3.10;;
19257;SDS011;9763;48.780;9.212;2022-12-07T02:06:33;5.40;;;3.97;;
19257;SDS011;9763;48.780;9.212;2022-12-07T02:10:11;6.30;;;5.70;;
19257;SDS011;9763;48.780;9.212;2022-12-07T02:13:37;4.90;;;3.87;;
19257;SDS011;9763;48.780;9.212;2022-12-07T02:17:05;5.70;;;5.20;;
19257;SDS011;9763;48.780;9.212;2022-12-07T02:20:44;5.93;;;5.00;;
19257;SDS011;9763;48.780;9.212;2022-12-07T02:24:47;4.93;;;4.47;;
19257;SDS011;9763;48.780;9.212;2022-12-07T02:28:17;6.10;;;5.53;;
19257;SDS011;9763;48.780;9.212;2022-12-07T02:31:55;4.63;;;4.20;;
19257;SDS011;9763;48.780;9.212;2022-12-07T02:35:30;6.77;;;6.13;;
19257;SDS011;9763;48.780;9.212;2022-12-07T02:39:03;5.97;;;4.47;;
19257;SDS011;9763;48.780;9.212;2022-12-07T02:42:35;4.87;;;4.37;;
19257;SDS011;9763;48.780;9.212;2022-12-07T02:46:06;5.10;;;4.33;;
19257;SDS011;9763;48.780;9.212;2022-12-07T02:49:36;5.33;;;4.57;;
19257;SDS011;9763;48.780;9.212;2022-12-07T02:53:03;5.80;;;5.27;;
19257;SDS011;9763;48.780;9.212;2022-12-07T02:56:27;6.13;;;5.63;;
19257;SDS011;9763;48.780;9.212;2022-12-07T03:00:06;4.83;;;4.43;;
19257;SDS011;9763;48.780;9.212;2022-12-07T03:03:32;4.70;;;4.30;;
19257;SDS011;9763;48.780;9.212;2022-12-07T03:07:02;4.73;;;4.33;;
19257;SDS011;9763;48.780;9.212;2022-12-07T03:10:39;5.80;;;5.30;;
19257;SDS011;9763;48.780;9.212;2022-12-07T03:14:09;5.90;;;5.33;;
19257;SDS011;9763;48.780;9.212;2022-12-07T03:17:38;5.43;;;4.83;;
19257;SDS011;9763;48.780;9.212;2022-12-07T03:21:07;5.20;;;4.70;;
19257;SDS011;9763;48.780;9.212;2022-12-07T03:24:38;5.20;;;4.70;;
19257;SDS011;9763;48.780;9.212;2022-12-07T03:28:06;5.30;;;4.80;;
19257;SDS011;9763;48.780;9.212;2022-12-07T03:31:32;4.37;;;3.97;;
19257;SDS011;9763;48.780;9.212;2022-12-07T03:35:03;5.73;;;5.00;;
19257;SDS011;9763;48.780;9.212;2022-12-07T03:38:36;5.63;;;4.43;;
19257;SDS011;9763;48.780;9.212;2022-12-07T03:42:07;4.67;;;4.27;;
19257;SDS011;9763;48.780;9.212;2022-12-07T03:45:33;4.40;;;3.83;;
19257;SDS011;9763;48.780;9.212;2022-12-07T03:49:04;4.10;;;3.70;;
19257;SDS011;9763;48.780;9.212;2022-12-07T03:52:36;3.73;;;3.43;;
19257;SDS011;9763;48.780;9.212;2022-12-07T03:56:04;5.23;;;4.70;;
19257;SDS011;9763;48.780;9.212;2022-12-07T03:59:31;4.87;;;4.47;;
19257;SDS011;9763;48.780;9.212;2022-12-07T04:02:56;5.07;;;4.40;;
19257;SDS011;9763;48.780;9.212;2022-12-07T04:06:20;4.90;;;4.20;;
19257;SDS011;9763;48.780;9.212;2022-12-07T04:09:44;4.70;;;4.30;;
19257;SDS011;9763;48.780;9.212;2022-12-07T04:13:08;4.53;;;3.47;;
19257;SDS011;9763;48.780;9.212;2022-12-07T04:16:33;3.83;;;3.53;;
19257;SDS011;9763;48.780;9.212;2022-12-07T04:20:05;4.93;;;4.43;;
19257;SDS011;9763;48.780;9.212;2022-12-07T04:23:30;4.00;;;3.60;;
19257;SDS011;9763;48.780;9.212;2022-12-07T04:26:54;4.20;;;3.80;;
19257;SDS011;9763;48.780;9.212;2022-12-07T04:30:18;4.00;;;3.50;;
19257;SDS011;9763;48.780;9.212;2022-12-07T04:33:43;3.33;;;3.07;;
19257;SDS011;9763;48.780;9.212;2022-12-07T04:37:07;5.50;;;4.00;;
19257;SDS011;9763;48.780;9.212;2022-12-07T04:40:31;4.30;;;3.70;;
19257;SDS011;9763;48.780;9.212;2022-12-07T04:43:54;3.40;;;3.10;;
19257;SDS011;9763;48.780;9.212;2022-12-07T04:47:19;4.43;;;3.90;;
19257;SDS011;9763;48.780;9.212;2022-12-07T04:50:47;3.40;;;3.10;;
19257;SDS011;9763;48.780;9.212;2022-12-07T04:54:12;5.57;;;3.87;;
19257;SDS011;9763;48.780;9.212;2022-12-07T04:57:36;3.93;;;3.30;;
19257;SDS011;9763;48.780;9.212;2022-12-07T05:01:00;3.60;;;2.37;;
19257;SDS011;9763;48.780;9.212;2022-12-07T05:04:24;2.47;;;2.27;;
19257;SDS011;9763;48.780;9.212;2022-12-07T05:07:49;3.40;;;2.57;;
19257;SDS011;9763;48.780;9.212;2022-12-07T05:11:13;2.87;;;2.67;;
19257;SDS011;9763;48.780;9.212;2022-12-07T05:14:59;2.90;;;2.70;;
19257;SDS011;9763;48.780;9.212;2022-12-07T05:18:23;3.13;;;2.83;;
19257;SDS011;9763;48.780;9.212;2022-12-07T05:21:47;3.63;;;3.33;;
19257;SDS011;9763;48.780;9.212;2022-12-07T05:25:12;3.60;;;3.27;;
19257;SDS011;9763;48.780;9.212;2022-12-07T05:28:36;6.68;;;5.97;;
19257;SDS011;9763;48.780;9.212;2022-12-07T05:32:00;5.30;;;4.50;;
19257;SDS011;9763;48.780;9.212;2022-12-07T05:35:24;6.40;;;5.80;;
19257;SDS011;9763;48.780;9.212;2022-12-07T05:38:48;4.67;;;4.10;;
19257;SDS011;9763;48.780;9.212;2022-12-07T05:42:12;4.20;;;3.80;;
19257;SDS011;9763;48.780;9.212;2022-12-07T05:45:36;4.90;;;4.10;;
19257;SDS011;9763;48.780;9.212;2022-12-07T05:49:00;4.43;;;4.03;;
19257;SDS011;9763;48.780;9.212;2022-12-07T05:52:24;5.80;;;4.70;;
19257;SDS011;9763;48.780;9.212;2022-12-07T05:55:48;5.43;;;4.60;;
19257;SDS011;9763;48.780;9.212;2022-12-07T05:59:13;6.10;;;4.80;;
19257;SDS011;9763;48.780;9.212;2022-12-07T06:02:48;5.80;;;4.87;;
19257;SDS011;9763;48.780;9.212;2022-12-07T06:06:12;5.47;;;4.93;;
19257;SDS011;9763;48.780;9.212;2022-12-07T06:09:36;5.93;;;5.33;;
19257;SDS011;9763;48.780;9.212;2022-12-07T06:13:00;6.80;;;5.00;;
19257;SDS011;9763;48.780;9.212;2022-12-07T06:16:25;6.00;;;4.93;;
19257;SDS011;9763;48.780;9.212;2022-12-07T06:19:49;5.80;;;4.97;;
19257;SDS011;9763;48.780;9.212;2022-12-07T06:23:13;4.53;;;4.13;;
19257;SDS011;9763;48.780;9.212;2022-12-07T06:26:37;5.10;;;4.60;;
19257;SDS011;9763;48.780;9.212;2022-12-07T06:30:01;5.43;;;4.90;;
19257;SDS011;9763;48.780;9.212;2022-12-07T06:33:29;5.90;;;4.97;;
19257;SDS011;9763;48.780;9.212;2022-12-07T06:36:53;3.60;;;3.30;;
19257;SDS011;9763;48.780;9.212;2022-12-07T06:40:17;4.57;;;4.17;;
19257;SDS011;9763;48.780;9.212;2022-12-07T06:43:41;5.60;;;4.90;;
19257;SDS011;9763;48.780;9.212;2022-12-07T06:47:05;4.97;;;4.47;;
19257;SDS011;9763;48.780;9.212;2022-12-07T06:50:50;4.47;;;4.03;;
19257;SDS011;9763;48.780;9.212;2022-12-07T06:54:16;5.30;;;4.80;;
19257;SDS011;9763;48.780;9.212;2022-12-07T06:57:40;6.90;;;4.27;;
19257;SDS011;9763;48.780;9.212;2022-12-07T07:01:08;4.33;;;3.90;;
19257;SDS011;9763;48.780;9.212;2022-12-07T07:04:33;4.30;;;3.90;;
19257;SDS011;9763;48.780;9.212;2022-12-07T07:08:01;4.87;;;4.37;;
19257;SDS011;9763;48.780;9.212;2022-12-07T07:11:43;4.20;;;3.80;;
19257;SDS011;9763;48.780;9.212;2022-12-07T07:15:06;3.40;;;2.93;;
19257;SDS011;9763;48.780;9.212;2022-12-07T07:18:31;4.03;;;3.60;;
19257;SDS011;9763;48.780;9.212;2022-12-07T07:21:55;3.80;;;3.50;;
19257;SDS011;9763;48.780;9.212;2022-12-07T07:25:23;3.60;;;3.30;;
19257;SDS011;9763;48.780;9.212;2022-12-07T07:28:47;3.77;;;3.47;;
19257;SDS011;9763;48.780;9.212;2022-12-07T07:32:11;3.67;;;3.37;;
19257;SDS011;9763;48.780;9.212;2022-12-07T07:35:35;4.20;;;3.57;;
19257;SDS011;9763;48.780;9.212;2022-12-07T07:38:59;3.17;;;2.70;;
19257;SDS011;9763;48.780;9.212;2022-12-07T07:42:24;4.40;;;3.60;;
19257;SDS011;9763;48.780;9.212;2022-12-07T07:45:48;3.70;;;3.40;;
19257;SDS011;9763;48.780;9.212;2022-12-07T07:49:12;3.80;;;3.40;;
19257;SDS011;9763;48.780;9.212;2022-12-07T07:52:36;3.67;;;3.37;;
19257;SDS011;9763;48.780;9.212;2022-12-07T07:56:00;3.47;;;3.17;;
19257;SDS011;9763;48.780;9.212;2022-12-07T07:59:26;4.00;;;3.60;;
19257;SDS011;9763;48.780;9.212;2022-12-07T08:02:50;3.13;;;2.83;;
19257;SDS011;9763;48.780;9.212;2022-12-07T08:06:14;4.03;;;3.63;;
19257;SDS011;9763;48.780;9.212;2022-12-07T08:09:38;4.33;;;3.67;;
19257;SDS011;9763;48.780;9.212;2022-12-07T08:13:02;2.83;;;2.63;;
19257;SDS011;9763;48.780;9.212;2022-12-07T08:16:37;3.90;;;3.33;;
19257;SDS011;9763;48.780;9.212;2022-12-07T08:20:01;4.77;;;3.13;;
19257;SDS011;9763;48.780;9.212;2022-12-07T08:23:26;3.50;;;3.20;;
19257;SDS011;9763;48.780;9.212;2022-12-07T08:26:59;3.70;;;3.40;;
19257;SDS011;9763;48.780;9.212;2022-12-07T08:30:24;3.63;;;3.33;;
19257;SDS011;9763;48.780;9.212;2022-12-07T08:33:49;3.87;;;3.43;;
19257;SDS011;9763;48.780;9.212;2022-12-07T08:37:13;3.17;;;2.87;;
19257;SDS011;9763;48.780;9.212;2022-12-07T08:40:37;3.40;;;3.10;;
19257;SDS011;9763;48.780;9.212;2022-12-07T08:44:00;3.50;;;3.20;;
19257;SDS011;9763;48.780;9.212;2022-12-07T08:47:25;3.30;;;3.00;;
19257;SDS011;9763;48.780;9.212;2022-12-07T08:50:50;3.13;;;2.57;;
19257;SDS011;9763;48.780;9.212;2022-12-07T08:54:16;2.60;;;2.40;;
19257;SDS011;9763;48.780;9.212;2022-12-07T08:57:41;2.83;;;2.63;;
19257;SDS011;9763;48.780;9.212;2022-12-07T09:01:05;3.40;;;3.10;;
19257;SDS011;9763;48.780;9.212;2022-12-07T09:04:29;2.67;;;2.43;;
19257;SDS011;9763;48.780;9.212;2022-12-07T09:07:56;4.10;;;3.40;;
19257;SDS011;9763;48.780;9.212;2022-12-07T09:11:23;2.67;;;2.47;;
19257;SDS011;9763;48.780;9.212;2022-12-07T09:14:49;3.20;;;2.83;;
19257;SDS011;9763;48.780;9.212;2022-12-07T09:18:13;2.50;;;2.30;;
19257;SDS011;9763;48.780;9.212;2022-12-07T09:21:36;2.73;;;2.40;;
19257;SDS011;9763;48.780;9.212;2022-12-07T09:25:02;2.60;;;2.40;;
19257;SDS011;9763;48.780;9.212;2022-12-07T09:28:27;2.43;;;2.23;;
19257;SDS011;9763;48.780;9.212;2022-12-07T09:31:51;2.70;;;2.33;;
19257;SDS011;9763;48.780;9.212;2022-12-07T09:35:15;2.50;;;2.30;;
19257;SDS011;9763;48.780;9.212;2022-12-07T09:38:39;3.10;;;2.57;;
19257;SDS011;9763;48.780;9.212;2022-12-07T09:42:04;2.20;;;2.00;;
19257;SDS011;9763;48.780;9.212;2022-12-07T09:45:30;2.60;;;2.40;;
19257;SDS011;9763;48.780;9.212;2022-12-07T09:48:59;2.20;;;1.90;;
19257;SDS011;9763;48.780;9.212;2022-12-07T09:52:25;2.60;;;2.40;;
19257;SDS011;9763;48.780;9.212;2022-12-07T09:55:59;2.87;;;2.50;;
19257;SDS011;9763;48.780;9.212;2022-12-07T09:59:25;3.00;;;2.70;;
19257;SDS011;9763;48.780;9.212;2022-12-07T10:02:57;2.43;;;2.23;;
19257;SDS011;9763;48.780;9.212;2022-12-07T10:06:23;2.80;;;2.60;;
19257;SDS011;9763;48.780;9.212;2022-12-07T10:09:46;2.37;;;2.17;;
19257;SDS011;9763;48.780;9.212;2022-12-07T10:13:10;2.47;;;2.27;;
19257;SDS011;9763;48.780;9.212;2022-12-07T10:16:39;2.17;;;1.97;;
19257;SDS011;9763;48.780;9.212;2022-12-07T10:20:17;2.90;;;2.53;;
19257;SDS011;9763;48.780;9.212;2022-12-07T10:23:58;2.50;;;2.10;;
19257;SDS011;9763;48.780;9.212;2022-12-07T10:27:26;2.20;;;1.90;;
19257;SDS011;9763;48.780;9.212;2022-12-07T10:30:55;2.57;;;2.37;;
19257;SDS011;9763;48.780;9.212;2022-12-07T10:34:25;2.53;;;2.30;;
19257;SDS011;9763;48.780;9.212;2022-12-07T10:37:58;2.73;;;2.50;;
19257;SDS011;9763;48.780;9.212;2022-12-07T10:41:22;2.17;;;1.97;;
19257;SDS011;9763;48.780;9.212;2022-12-07T10:44:47;3.00;;;1.90;;
19257;SDS011;9763;48.780;9.212;2022-12-07T10:48:13;2.10;;;2.00;;
19257;SDS011;9763;48.780;9.212;2022-12-07T10:51:52;2.60;;;2.40;;
19257;SDS011;9763;48.780;9.212;2022-12-07T10:55:31;4.37;;;2.93;;
19257;SDS011;9763;48.780;9.212;2022-12-07T10:59:15;3.00;;;2.70;;
19257;SDS011;9763;48.780;9.212;2022-12-07T11:07:10;2.10;;;1.90;;
19257;SDS011;9763;48.780;9.212;2022-12-07T11:10:46;2.50;;;2.30;;
19257;SDS011;9763;48.780;9.212;2022-12-07T11:14:22;2.53;;;2.33;;
19257;SDS011;9763;48.780;9.212;2022-12-07T11:18:00;2.43;;;2.20;;
19257;SDS011;9763;48.780;9.212;2022-12-07T11:21:31;2.27;;;2.07;;
19257;SDS011;9763;48.780;9.212;2022-12-07T11:25:16;2.10;;;1.90;;
19257;SDS011;9763;48.780;9.212;2022-12-07T11:28:57;1.93;;;1.70;;
19257;SDS011;9763;48.780;9.212;2022-12-07T11:32:49;2.70;;;2.37;;
19257;SDS011;9763;48.780;9.212;2022-12-07T11:36:36;2.20;;;2.00;;
19257;SDS011;9763;48.780;9.212;2022-12-07T11:40:05;1.63;;;1.53;;
19257;SDS011;9763;48.780;9.212;2022-12-07T11:43:50;1.50;;;1.40;;
19257;SDS011;9763;48.780;9.212;2022-12-07T11:47:22;2.03;;;1.50;;
19257;SDS011;9763;48.780;9.212;2022-12-07T11:50:58;2.33;;;2.13;;
19257;SDS011;9763;48.780;9.212;2022-12-07T11:54:25;1.87;;;1.67;;
19257;SDS011;9763;48.780;9.212;2022-12-07T11:57:56;2.43;;;1.97;;
19257;SDS011;9763;48.780;9.212;2022-12-07T12:05:16;2.33;;;2.13;;
19257;SDS011;9763;48.780;9.212;2022-12-07T12:08:44;2.73;;;2.53;;
19257;SDS011;9763;48.780;9.212;2022-12-07T12:12:41;2.60;;;2.40;;
19257;SDS011;9763;48.780;9.212;2022-12-07T12:16:58;3.23;;;2.93;;
19257;SDS011;9763;48.780;9.212;2022-12-07T12:21:02;4.00;;;3.60;;
19257;SDS011;9763;48.780;9.212;2022-12-07T12:24:32;3.50;;;3.20;;
19257;SDS011;9763;48.780;9.212;2022-12-07T12:27:59;4.63;;;4.00;;
19257;SDS011;9763;48.780;9.212;2022-12-07T12:31:36;3.10;;;2.80;;
19257;SDS011;9763;48.780;9.212;2022-12-07T12:39:08;6.47;;;5.87;;
19257;SDS011;9763;48.780;9.212;2022-12-07T12:42:43;4.43;;;3.47;;
19257;SDS011;9763;48.780;9.212;2022-12-07T12:50:18;3.73;;;3.40;;
19257;SDS011;9763;48.780;9.212;2022-12-07T12:53:50;4.03;;;3.67;;
19257;SDS011;9763;48.780;9.212;2022-12-07T12:57:15;9.30;;;3.20;;
19257;SDS011;9763;48.780;9.212;2022-12-07T13:05:16;5.53;;;3.33;;
19257;SDS011;9763;48.780;9.212;2022-12-07T13:08:43;4.37;;;3.50;;
19257;SDS011;9763;48.780;9.212;2022-12-07T13:12:11;3.30;;;3.00;;
19257;SDS011;9763;48.780;9.212;2022-12-07T13:15:39;4.27;;;3.87;;
19257;SDS011;9763;48.780;9.212;2022-12-07T13:23:23;3.40;;;3.10;;
19257;SDS011;9763;48.780;9.212;2022-12-07T13:26:59;4.07;;;3.40;;
19257;SDS011;9763;48.780;9.212;2022-12-07T13:30:23;3.57;;;3.27;;
19257;SDS011;9763;48.780;9.212;2022-12-07T13:33:48;4.57;;;4.17;;
19257;SDS011;9763;48.780;9.212;2022-12-07T13:37:12;3.57;;;3.27;;
19257;SDS011;9763;48.780;9.212;2022-12-07T13:41:00;4.23;;;3.00;;
19257;SDS011;9763;48.780;9.212;2022-12-07T13:44:39;4.07;;;3.67;;
19257;SDS011;9763;48.780;9.212;2022-12-07T13:48:04;4.03;;;3.10;;
19257;SDS011;9763;48.780;9.212;2022-12-07T13:51:28;2.83;;;2.63;;
19257;SDS011;9763;48.780;9.212;2022-12-07T13:55:00;3.13;;;2.93;;
19257;SDS011;9763;48.780;9.212;2022-12-07T13:58:38;3.43;;;2.87;;
19257;SDS011;9763;48.780;9.212;2022-12-07T14:02:02;4.93;;;3.17;;
19257;SDS011;9763;48.780;9.212;2022-12-07T14:05:42;3.20;;;3.00;;
19257;SDS011;9763;48.780;9.212;2022-12-07T14:09:08;3.20;;;2.90;;
19257;SDS011;9763;48.780;9.212;2022-12-07T14:12:41;4.77;;;4.37;;
19257;SDS011;9763;48.780;9.212;2022-12-07T14:16:21;3.40;;;3.10;;
19257;SDS011;9763;48.780;9.212;2022-12-07T14:19:50;7.97;;;4.30;;
19257;SDS011;9763;48.780;9.212;2022-12-07T14:23:22;3.90;;;3.60;;
19257;SDS011;9763;48.780;9.212;2022-12-07T14:26:48;3.40;;;3.10;;
19257;SDS011;9763;48.780;9.212;2022-12-07T14:30:14;3.83;;;3.50;;
19257;SDS011;9763;48.780;9.212;2022-12-07T14:33:42;3.43;;;3.13;;
19257;SDS011;9763;48.780;9.212;2022-12-07T14:37:07;3.20;;;2.77;;
19257;SDS011;9763;48.780;9.212;2022-12-07T14:40:32;3.30;;;2.90;;
19257;SDS011;9763;48.780;9.212;2022-12-07T14:43:56;3.93;;;2.50;;
19257;SDS011;9763;48.780;9.212;2022-12-07T14:47:40;3.33;;;2.90;;
19257;SDS011;9763;48.780;9.212;2022-12-07T14:51:25;3.30;;;2.90;;
19257;SDS011;9763;48.780;9.212;2022-12-07T14:55:12;3.80;;;3.50;;
19257;SDS011;9763;48.780;9.212;2022-12-07T14:58:43;2.90;;;2.70;;
19257;SDS011;9763;48.780;9.212;2022-12-07T15:02:09;3.60;;;3.30;;
19257;SDS011;9763;48.780;9.212;2022-12-07T15:05:35;3.70;;;3.40;;
19257;SDS011;9763;48.780;9.212;2022-12-07T15:09:02;4.83;;;4.33;;
19257;SDS011;9763;48.780;9.212;2022-12-07T15:12:26;4.60;;;4.20;;
19257;SDS011;9763;48.780;9.212;2022-12-07T15:15:50;3.60;;;3.00;;
19257;SDS011;9763;48.780;9.212;2022-12-07T15:19:16;3.60;;;3.30;;
19257;SDS011;9763;48.780;9.212;2022-12-07T15:22:50;4.30;;;3.90;;
19257;SDS011;9763;48.780;9.212;2022-12-07T15:26:14;5.00;;;3.77;;
19257;SDS011;9763;48.780;9.212;2022-12-07T15:29:38;6.27;;;4.40;;
19257;SDS011;9763;48.780;9.212;2022-12-07T15:33:01;4.27;;;3.87;;
19257;SDS011;9763;48.780;9.212;2022-12-07T15:36:26;6.57;;;3.07;;
19257;SDS011;9763;48.780;9.212;2022-12-07T15:39:51;3.83;;;3.13;;
19257;SDS011;9763;48.780;9.212;2022-12-07T15:43:16;4.83;;;3.80;;
19257;SDS011;9763;48.780;9.212;2022-12-07T15:46:57;4.73;;;4.23;;
19257;SDS011;9763;48.780;9.212;2022-12-07T15:50:22;7.90;;;4.73;;
19257;SDS011;9763;48.780;9.212;2022-12-07T15:53:45;4.37;;;3.97;;
19257;SDS011;9763;48.780;9.212;2022-12-07T15:57:09;3.83;;;3.53;;
19257;SDS011;9763;48.780;9.212;2022-12-07T16:00:34;4.13;;;3.43;;
19257;SDS011;9763;48.780;9.212;2022-12-07T16:03:58;5.50;;;4.03;;
19257;SDS011;9763;48.780;9.212;2022-12-07T16:07:22;5.10;;;4.60;;
19257;SDS011;9763;48.780;9.212;2022-12-07T16:10:46;4.27;;;3.87;;
19257;SDS011;9763;48.780;9.212;2022-12-07T16:14:10;4.43;;;4.03;;
19257;SDS011;9763;48.780;9.212;2022-12-07T16:17:35;4.30;;;3.90;;
19257;SDS011;9763;48.780;9.212;2022-12-07T16:20:59;6.93;;;4.37;;
19257;SDS011;9763;48.780;9.212;2022-12-07T16:24:23;5.07;;;4.53;;
19257;SDS011;9763;48.780;9.212;2022-12-07T16:27:47;6.00;;;5.40;;
19257;SDS011;9763;48.780;9.212;2022-12-07T16:31:12;6.50;;;4.93;;
19257;SDS011;9763;48.780;9.212;2022-12-07T16:34:40;5.17;;;4.67;;
19257;SDS011;9763;48.780;9.212;2022-12-07T16:38:04;5.53;;;4.93;;
19257;SDS011;9763;48.780;9.212;2022-12-07T16:41:28;5.03;;;4.43;;
19257;SDS011;9763;48.780;9.212;2022-12-07T16:44:52;6.23;;;4.60;;
19257;SDS011;9763;48.780;9.212;2022-12-07T16:48:16;5.27;;;4.17;;
19257;SDS011;9763;48.780;9.212;2022-12-07T16:51:41;5.90;;;5.30;;
19257;SDS011;9763;48.780;9.212;2022-12-07T16:55:05;6.70;;;5.90;;
19257;SDS011;9763;48.780;9.212;2022-12-07T16:58:30;5.03;;;4.60;;
19257;SDS011;9763;48.780;9.212;2022-12-07T17:01:54;5.73;;;4.77;;
19257;SDS011;9763;48.780;9.212;2022-12-07T17:05:18;5.00;;;4.50;;
19257;SDS011;9763;48.780;9.212;2022-12-07T17:08:43;6.70;;;5.47;;
19257;SDS011;9763;48.780;9.212;2022-12-07T17:12:07;7.00;;;6.20;;
19257;SDS011;9763;48.780;9.212;2022-12-07T17:15:30;5.03;;;4.53;;
19257;SDS011;9763;48.780;9.212;2022-12-07T17:18:54;7.00;;;6.40;;
19257;SDS011;9763;48.780;9.212;2022-12-07T17:22:18;6.30;;;5.13;;
19257;SDS011;9763;48.780;9.212;2022-12-07T17:25:44;6.00;;;4.80;;
19257;SDS011;9763;48.780;9.212;2022-12-07T17:29:09;6.10;;;4.73;;
19257;SDS011;9763;48.780;9.212;2022-12-07T17:32:35;5.10;;;4.60;;
19257;SDS011;9763;48.780;9.212;2022-12-07T17:35:59;6.00;;;4.70;;
19257;SDS011;9763;48.780;9.212;2022-12-07T17:39:23;5.97;;;4.90;;
19257;SDS011;9763;48.780;9.212;2022-12-07T17:42:48;7.50;;;4.67;;
19257;SDS011;9763;48.780;9.212;2022-12-07T17:46:12;6.63;;;5.20;;
19257;SDS011;9763;48.780;9.212;2022-12-07T17:49:35;5.93;;;5.33;;
19257;SDS011;9763;48.780;9.212;2022-12-07T17:52:59;5.63;;;5.13;;
19257;SDS011;9763;48.780;9.212;2022-12-07T17:56:32;5.53;;;5.00;;
19257;SDS011;9763;48.780;9.212;2022-12-07T17:59:57;5.80;;;4.73;;
19257;SDS011;9763;48.780;9.212;2022-12-07T18:03:21;6.57;;;5.87;;
19257;SDS011;9763;48.780;9.212;2022-12-07T18:06:45;5.47;;;4.97;;
19257;SDS011;9763;48.780;9.212;2022-12-07T18:10:13;5.43;;;4.70;;
19257;SDS011;9763;48.780;9.212;2022-12-07T18:13:36;5.10;;;4.60;;
19257;SDS011;9763;48.780;9.212;2022-12-07T18:17:02;7.40;;;6.70;;
19257;SDS011;9763;48.780;9.212;2022-12-07T18:20:25;6.57;;;5.90;;
19257;SDS011;9763;48.780;9.212;2022-12-07T18:23:49;5.67;;;5.07;;
19257;SDS011;9763;48.780;9.212;2022-12-07T18:27:15;7.00;;;5.40;;
19257;SDS011;9763;48.780;9.212;2022-12-07T18:30:39;5.83;;;4.63;;
19257;SDS011;9763;48.780;9.212;2022-12-07T18:34:25;7.17;;;5.23;;
19257;SDS011;9763;48.780;9.212;2022-12-07T18:37:51;5.37;;;4.87;;
19257;SDS011;9763;48.780;9.212;2022-12-07T18:41:14;6.13;;;4.77;;
19257;SDS011;9763;48.780;9.212;2022-12-07T18:44:38;6.80;;;5.77;;
19257;SDS011;9763;48.780;9.212;2022-12-07T18:48:02;7.43;;;6.70;;
19257;SDS011;9763;48.780;9.212;2022-12-07T18:51:28;7.13;;;6.00;;
19257;SDS011;9763;48.780;9.212;2022-12-07T18:54:53;9.03;;;7.93;;
19257;SDS011;9763;48.780;9.212;2022-12-07T18:58:17;7.53;;;6.03;;
19257;SDS011;9763;48.780;9.212;2022-12-07T19:01:41;6.27;;;5.10;;
19257;SDS011;9763;48.780;9.212;2022-12-07T19:05:06;5.83;;;5.13;;
19257;SDS011;9763;48.780;9.212;2022-12-07T19:08:31;4.90;;;4.50;;
19257;SDS011;9763;48.780;9.212;2022-12-07T19:11:55;5.20;;;4.60;;
19257;SDS011;9763;48.780;9.212;2022-12-07T19:15:23;4.90;;;4.17;;
19257;SDS011;9763;48.780;9.212;2022-12-07T19:18:47;6.80;;;5.00;;
19257;SDS011;9763;48.780;9.212;2022-12-07T19:22:13;5.13;;;4.63;;
19257;SDS011;9763;48.780;9.212;2022-12-07T19:25:40;6.30;;;4.97;;
19257;SDS011;9763;48.780;9.212;2022-12-07T19:29:04;5.17;;;4.67;;
19257;SDS011;9763;48.780;9.212;2022-12-07T19:32:27;4.73;;;4.20;;
19257;SDS011;9763;48.780;9.212;2022-12-07T19:35:52;4.07;;;3.67;;
19257;SDS011;9763;48.780;9.212;2022-12-07T19:39:15;3.73;;;3.40;;
19257;SDS011;9763;48.780;9.212;2022-12-07T19:42:40;3.63;;;3.33;;
19257;SDS011;9763;48.780;9.212;2022-12-07T19:46:04;3.97;;;3.57;;
19257;SDS011;9763;48.780;9.212;2022-12-07T19:49:30;3.10;;;2.80;;
19257;SDS011;9763;48.780;9.212;2022-12-07T19:52:56;3.43;;;3.13;;
19257;SDS011;9763;48.780;9.212;2022-12-07T19:56:20;3.83;;;3.53;;
19257;SDS011;9763;48.780;9.212;2022-12-07T19:59:45;3.10;;;2.80;;
19257;SDS011;9763;48.780;9.212;2022-12-07T20:03:09;3.83;;;3.43;;
19257;SDS011;9763;48.780;9.212;2022-12-07T20:06:32;4.23;;;3.90;;
19257;SDS011;9763;48.780;9.212;2022-12-07T20:09:56;3.60;;;3.30;;
19257;SDS011;9763;48.780;9.212;2022-12-07T20:13:20;3.70;;;3.40;;
19257;SDS011;9763;48.780;9.212;2022-12-07T20:16:50;3.50;;;3.20;;
19257;SDS011;9763;48.780;9.212;2022-12-07T20:20:14;4.70;;;3.40;;
19257;SDS011;9763;48.780;9.212;2022-12-07T20:23:38;3.80;;;3.37;;
19257;SDS011;9763;48.780;9.212;2022-12-07T20:27:02;3.60;;;3.30;;
19257;SDS011;9763;48.780;9.212;2022-12-07T20:30:28;5.27;;;3.90;;
19257;SDS011;9763;48.780;9.212;2022-12-07T20:33:54;4.60;;;4.20;;
19257;SDS011;9763;48.780;9.212;2022-12-07T20:37:21;5.27;;;4.77;;
19257;SDS011;9763;48.780;9.212;2022-12-07T20:40:45;4.90;;;4.03;;
19257;SDS011;9763;48.780;9.212;2022-12-07T20:44:10;3.83;;;3.33;;
19257;SDS011;9763;48.780;9.212;2022-12-07T20:47:35;4.33;;;3.90;;
19257;SDS011;9763;48.780;9.212;2022-12-07T20:51:04;5.50;;;3.50;;
19257;SDS011;9763;48.780;9.212;2022-12-07T20:54:29;5.83;;;4.10;;
19257;SDS011;9763;48.780;9.212;2022-12-07T20:57:52;3.97;;;3.57;;
19257;SDS011;9763;48.780;9.212;2022-12-07T21:01:17;4.07;;;3.27;;
19257;SDS011;9763;48.780;9.212;2022-12-07T21:04:40;5.07;;;4.57;;
19257;SDS011;9763;48.780;9.212;2022-12-07T21:08:06;5.27;;;4.13;;
19257;SDS011;9763;48.780;9.212;2022-12-07T21:11:29;5.53;;;3.70;;
19257;SDS011;9763;48.780;9.212;2022-12-07T21:14:54;4.47;;;4.00;;
19257;SDS011;9763;48.780;9.212;2022-12-07T21:18:17;4.60;;;4.10;;
19257;SDS011;9763;48.780;9.212;2022-12-07T21:21:41;6.57;;;5.30;;
19257;SDS011;9763;48.780;9.212;2022-12-07T21:25:07;4.40;;;3.97;;
19257;SDS011;9763;48.780;9.212;2022-12-07T21:28:31;3.93;;;3.33;;
19257;SDS011;9763;48.780;9.212;2022-12-07T21:31:55;3.50;;;3.20;;